sensor_id;sensor_type;location;lat;lon;timestamp;pressure;altitude;pressure_sealevel;temperature;humidity
49709;BME280;35601;55.902;13.606;2023-04-03T00:01:34;102626.81;;;-3.61;58.57
49709;BME280;35601;55.902;13.606;2023-04-03T00:03:59;102624.17;;;-3.65;59.05
49709;BME280;35601;55.902;13.606;2023-04-03T00:06:24;102625.90;;;-3.63;58.89
49709;BME280;35601;55.902;13.606;2023-04-03T00:08:50;102626.15;;;-3.70;59.02
49709;BME280;35601;55.902;13.606;2023-04-03T00:11:16;102625.19;;;-3.70;59.11
49709;BME280;35601;55.902;13.606;2023-04-03T00:13:40;102626.90;;;-3.82;59.25
49709;BME280;35601;55.902;13.606;2023-04-03T00:16:07;102629.46;;;-3.87;58.89
49709;BME280;35601;55.902;13.606;2023-04-03T00:18:31;102629.24;;;-3.70;59.27
49709;BME280;35601;55.902;13.606;2023-04-03T00:20:57;102632.89;;;-3.90;58.93
49709;BME280;35601;55.902;13.606;2023-04-03T00:23:22;102628.79;;;-4.00;58.75
49709;BME280;35601;55.902;13.606;2023-04-03T00:25:47;102630.47;;;-4.13;59.62
49709;BME280;35601;55.902;13.606;2023-04-03T00:28:13;102631.68;;;-4.18;59.84
49709;BME280;35601;55.902;13.606;2023-04-03T00:30:39;102635.35;;;-3.67;59.84
49709;BME280;35601;55.902;13.606;2023-04-03T00:33:04;102631.77;;;-4.07;60.46
49709;BME280;35601;55.902;13.606;2023-04-03T00:35:29;102631.08;;;-4.29;60.40
49709;BME280;35601;55.902;13.606;2023-04-03T00:37:56;102628.31;;;-3.86;60.32
49709;BME280;35601;55.902;13.606;2023-04-03T00:40:23;102628.63;;;-4.10;60.26
49709;BME280;35601;55.902;13.606;2023-04-03T00:42:48;102629.59;;;-4.40;60.47
49709;BME280;35601;55.902;13.606;2023-04-03T00:45:29;102629.70;;;-3.97;60.66
49709;BME280;35601;55.902;13.606;2023-04-03T00:47:38;102630.29;;;-4.00;60.69
49709;BME280;35601;55.902;13.606;2023-04-03T00:50:03;102633.59;;;-4.47;60.71
49709;BME280;35601;55.902;13.606;2023-04-03T00:52:29;102634.53;;;-4.46;60.62
49709;BME280;35601;55.902;13.606;2023-04-03T00:54:57;102634.89;;;-4.00;60.74
49709;BME280;35601;55.902;13.606;2023-04-03T00:57:19;102634.59;;;-4.51;60.75
49709;BME280;35601;55.902;13.606;2023-04-03T00:59:49;102637.86;;;-4.53;60.72
49709;BME280;35601;55.902;13.606;2023-04-03T01:02:11;102639.21;;;-4.37;61.11
49709;BME280;35601;55.902;13.606;2023-04-03T01:04:37;102639.18;;;-4.46;61.54
49709;BME280;35601;55.902;13.606;2023-04-03T01:07:04;102644.93;;;-4.29;61.71
49709;BME280;35601;55.902;13.606;2023-04-03T01:09:28;102644.88;;;-4.19;61.43
49709;BME280;35601;55.902;13.606;2023-04-03T01:11:52;102649.07;;;-4.13;60.94
49709;BME280;35601;55.902;13.606;2023-04-03T01:14:19;102649.82;;;-4.25;60.76
49709;BME280;35601;55.902;13.606;2023-04-03T01:16:52;102650.75;;;-4.24;60.53
49709;BME280;35601;55.902;13.606;2023-04-03T01:19:12;102648.04;;;-4.40;60.24
49709;BME280;35601;55.902;13.606;2023-04-03T01:21:54;102651.31;;;-4.49;60.58
49709;BME280;35601;55.902;13.606;2023-04-03T01:24:06;102648.14;;;-4.40;60.21
49709;BME280;35601;55.902;13.606;2023-04-03T01:26:25;102651.70;;;-4.18;60.13
49709;BME280;35601;55.902;13.606;2023-04-03T01:28:50;102651.79;;;-4.19;60.07
49709;BME280;35601;55.902;13.606;2023-04-03T01:31:22;102653.50;;;-4.22;60.03
49709;BME280;35601;55.902;13.606;2023-04-03T01:33:42;102651.09;;;-4.22;60.22
49709;BME280;35601;55.902;13.606;2023-04-03T01:36:07;102652.60;;;-4.34;60.42
49709;BME280;35601;55.902;13.606;2023-04-03T01:38:32;102654.05;;;-4.28;60.20
49709;BME280;35601;55.902;13.606;2023-04-03T01:40:57;102656.45;;;-4.74;60.05
49709;BME280;35601;55.902;13.606;2023-04-03T01:43:23;102655.93;;;-4.51;59.77
49709;BME280;35601;55.902;13.606;2023-04-03T01:45:48;102653.34;;;-4.31;59.31
49709;BME280;35601;55.902;13.606;2023-04-03T01:48:14;102655.39;;;-4.43;59.24
49709;BME280;35601;55.902;13.606;2023-04-03T01:50:39;102657.14;;;-4.48;59.44
49709;BME280;35601;55.902;13.606;2023-04-03T01:53:05;102655.73;;;-4.57;59.45
49709;BME280;35601;55.902;13.606;2023-04-03T01:55:30;102657.37;;;-4.91;59.52
49709;BME280;35601;55.902;13.606;2023-04-03T01:57:56;102653.17;;;-5.03;59.64
49709;BME280;35601;55.902;13.606;2023-04-03T02:00:21;102657.74;;;-4.89;59.82
49709;BME280;35601;55.902;13.606;2023-04-03T02:02:47;102659.31;;;-4.97;60.10
49709;BME280;35601;55.902;13.606;2023-04-03T02:05:12;102662.70;;;-5.07;60.49
49709;BME280;35601;55.902;13.606;2023-04-03T02:07:38;102661.46;;;-5.15;60.73
49709;BME280;35601;55.902;13.606;2023-04-03T02:10:04;102665.45;;;-5.28;61.65
49709;BME280;35601;55.902;13.606;2023-04-03T02:12:29;102664.78;;;-5.07;62.03
49709;BME280;35601;55.902;13.606;2023-04-03T02:14:55;102665.59;;;-5.10;62.21
49709;BME280;35601;55.902;13.606;2023-04-03T02:17:20;102667.24;;;-5.21;63.14
49709;BME280;35601;55.902;13.606;2023-04-03T02:19:45;102668.04;;;-5.45;63.32
49709;BME280;35601;55.902;13.606;2023-04-03T02:22:12;102668.13;;;-5.18;63.16
49709;BME280;35601;55.902;13.606;2023-04-03T02:24:36;102668.77;;;-5.23;63.24
49709;BME280;35601;55.902;13.606;2023-04-03T02:27:02;102668.19;;;-5.29;63.48
49709;BME280;35601;55.902;13.606;2023-04-03T02:29:27;102668.40;;;-5.58;63.74
49709;BME280;35601;55.902;13.606;2023-04-03T02:31:53;102669.91;;;-5.31;63.43
49709;BME280;35601;55.902;13.606;2023-04-03T02:34:18;102671.72;;;-5.58;62.59
49709;BME280;35601;55.902;13.606;2023-04-03T02:36:44;102666.77;;;-5.40;62.06
49709;BME280;35601;55.902;13.606;2023-04-03T02:39:09;102664.66;;;-5.48;61.67
49709;BME280;35601;55.902;13.606;2023-04-03T02:41:35;102665.51;;;-5.61;61.45
49709;BME280;35601;55.902;13.606;2023-04-03T02:44:00;102665.73;;;-5.70;61.35
49709;BME280;35601;55.902;13.606;2023-04-03T02:46:26;102667.58;;;-5.85;61.84
49709;BME280;35601;55.902;13.606;2023-04-03T02:48:51;102671.95;;;-5.96;61.87
49709;BME280;35601;55.902;13.606;2023-04-03T02:51:17;102673.31;;;-5.82;62.07
49709;BME280;35601;55.902;13.606;2023-04-03T02:53:42;102674.32;;;-6.16;62.26
49709;BME280;35601;55.902;13.606;2023-04-03T02:56:08;102677.21;;;-6.25;62.76
49709;BME280;35601;55.902;13.606;2023-04-03T02:58:33;102676.87;;;-6.12;64.04
49709;BME280;35601;55.902;13.606;2023-04-03T03:00:59;102676.31;;;-6.11;64.25
49709;BME280;35601;55.902;13.606;2023-04-03T03:03:25;102674.11;;;-6.14;64.59
49709;BME280;35601;55.902;13.606;2023-04-03T03:05:50;102677.52;;;-6.15;64.90
49709;BME280;35601;55.902;13.606;2023-04-03T03:08:16;102678.38;;;-6.19;65.42
49709;BME280;35601;55.902;13.606;2023-04-03T03:10:41;102679.43;;;-6.21;65.50
49709;BME280;35601;55.902;13.606;2023-04-03T03:13:07;102679.14;;;-6.19;65.53
49709;BME280;35601;55.902;13.606;2023-04-03T03:15:32;102683.71;;;-6.25;65.74
49709;BME280;35601;55.902;13.606;2023-04-03T03:17:58;102682.73;;;-6.17;65.62
49709;BME280;35601;55.902;13.606;2023-04-03T03:20:23;102682.62;;;-6.14;65.31
49709;BME280;35601;55.902;13.606;2023-04-03T03:22:49;102683.20;;;-6.14;64.74
49709;BME280;35601;55.902;13.606;2023-04-03T03:25:14;102681.30;;;-6.15;64.17
49709;BME280;35601;55.902;13.606;2023-04-03T03:27:40;102682.71;;;-6.20;63.51
49709;BME280;35601;55.902;13.606;2023-04-03T03:30:07;102686.14;;;-6.28;63.11
49709;BME280;35601;55.902;13.606;2023-04-03T03:32:31;102684.70;;;-6.35;62.85
49709;BME280;35601;55.902;13.606;2023-04-03T03:34:56;102684.86;;;-6.43;62.70
49709;BME280;35601;55.902;13.606;2023-04-03T03:37:22;102684.56;;;-6.55;62.65
49709;BME280;35601;55.902;13.606;2023-04-03T03:39:48;102683.30;;;-6.67;63.72
49709;BME280;35601;55.902;13.606;2023-04-03T03:42:13;102680.90;;;-6.74;64.48
49709;BME280;35601;55.902;13.606;2023-04-03T03:44:38;102681.36;;;-6.33;65.28
49709;BME280;35601;55.902;13.606;2023-04-03T03:47:04;102680.41;;;-6.82;65.72
49709;BME280;35601;55.902;13.606;2023-04-03T03:49:29;102681.02;;;-6.55;65.84
49709;BME280;35601;55.902;13.606;2023-04-03T03:51:55;102678.47;;;-6.31;66.21
49709;BME280;35601;55.902;13.606;2023-04-03T03:54:20;102680.47;;;-6.85;66.63
49709;BME280;35601;55.902;13.606;2023-04-03T03:56:46;102680.03;;;-6.67;67.18
49709;BME280;35601;55.902;13.606;2023-04-03T03:59:12;102680.95;;;-6.92;67.94
49709;BME280;35601;55.902;13.606;2023-04-03T04:01:37;102679.14;;;-6.37;67.88
49709;BME280;35601;55.902;13.606;2023-04-03T04:04:02;102681.56;;;-6.61;68.12
49709;BME280;35601;55.902;13.606;2023-04-03T04:06:28;102684.10;;;-6.56;68.89
49709;BME280;35601;55.902;13.606;2023-04-03T04:08:53;102680.93;;;-6.60;69.66
49709;BME280;35601;55.902;13.606;2023-04-03T04:11:19;102680.42;;;-6.42;70.24
49709;BME280;35601;55.902;13.606;2023-04-03T04:13:44;102684.67;;;-6.34;70.41
49709;BME280;35601;55.902;13.606;2023-04-03T04:16:09;102687.06;;;-6.18;69.55
49709;BME280;35601;55.902;13.606;2023-04-03T04:18:35;102689.89;;;-6.34;69.08
49709;BME280;35601;55.902;13.606;2023-04-03T04:21:02;102691.98;;;-6.64;69.77
49709;BME280;35601;55.902;13.606;2023-04-03T04:23:26;102692.02;;;-6.55;69.75
49709;BME280;35601;55.902;13.606;2023-04-03T04:25:51;102692.94;;;-6.57;70.25
49709;BME280;35601;55.902;13.606;2023-04-03T04:28:18;102697.50;;;-6.39;70.67
49709;BME280;35601;55.902;13.606;2023-04-03T04:30:42;102700.44;;;-6.66;70.73
49709;BME280;35601;55.902;13.606;2023-04-03T04:33:08;102703.06;;;-6.13;70.64
49709;BME280;35601;55.902;13.606;2023-04-03T04:35:35;102704.84;;;-6.12;70.64
49709;BME280;35601;55.902;13.606;2023-04-03T04:37:58;102706.13;;;-6.36;70.90
49709;BME280;35601;55.902;13.606;2023-04-03T04:40:24;102706.65;;;-6.64;70.57
49709;BME280;35601;55.902;13.606;2023-04-03T04:42:49;102708.46;;;-6.43;70.65
49709;BME280;35601;55.902;13.606;2023-04-03T04:45:15;102709.02;;;-6.17;70.62
49709;BME280;35601;55.902;13.606;2023-04-03T04:47:40;102715.09;;;-6.35;70.43
49709;BME280;35601;55.902;13.606;2023-04-03T04:50:06;102720.94;;;-6.59;70.51
49709;BME280;35601;55.902;13.606;2023-04-03T04:52:30;102723.47;;;-6.12;70.44
49709;BME280;35601;55.902;13.606;2023-04-03T04:54:56;102724.95;;;-6.01;70.26
49709;BME280;35601;55.902;13.606;2023-04-03T04:57:21;102727.61;;;-6.27;70.04
49709;BME280;35601;55.902;13.606;2023-04-03T04:59:47;102727.95;;;-6.50;69.87
49709;BME280;35601;55.902;13.606;2023-04-03T05:02:12;102731.53;;;-6.43;69.80
49709;BME280;35601;55.902;13.606;2023-04-03T05:04:37;102733.29;;;-5.91;69.63
49709;BME280;35601;55.902;13.606;2023-04-03T05:07:03;102728.73;;;-6.44;69.65
49709;BME280;35601;55.902;13.606;2023-04-03T05:09:28;102731.43;;;-6.33;69.54
49709;BME280;35601;55.902;13.606;2023-04-03T05:11:53;102732.44;;;-5.86;68.83
49709;BME280;35601;55.902;13.606;2023-04-03T05:14:19;102731.94;;;-6.00;68.62
49709;BME280;35601;55.902;13.606;2023-04-03T05:16:45;102731.76;;;-5.98;68.42
49709;BME280;35601;55.902;13.606;2023-04-03T05:19:10;102734.66;;;-5.79;67.88
49709;BME280;35601;55.902;13.606;2023-04-03T05:21:35;102737.24;;;-5.78;67.98
49709;BME280;35601;55.902;13.606;2023-04-03T05:24:01;102735.81;;;-5.66;68.01
49709;BME280;35601;55.902;13.606;2023-04-03T05:26:27;102739.49;;;-5.45;67.52
49709;BME280;35601;55.902;13.606;2023-04-03T05:28:52;102742.33;;;-5.70;67.40
49709;BME280;35601;55.902;13.606;2023-04-03T05:31:17;102743.99;;;-5.01;67.29
49709;BME280;35601;55.902;13.606;2023-04-03T05:33:43;102742.08;;;-4.81;66.39
49709;BME280;35601;55.902;13.606;2023-04-03T05:36:09;102742.26;;;-4.60;66.33
49709;BME280;35601;55.902;13.606;2023-04-03T05:38:34;102740.09;;;-4.87;65.47
49709;BME280;35601;55.902;13.606;2023-04-03T05:40:59;102744.80;;;-4.56;64.86
49709;BME280;35601;55.902;13.606;2023-04-03T05:43:24;102740.60;;;-4.37;64.29
49709;BME280;35601;55.902;13.606;2023-04-03T05:45:51;102739.90;;;-4.10;63.63
49709;BME280;35601;55.902;13.606;2023-04-03T05:48:15;102744.10;;;-4.01;62.36
49709;BME280;35601;55.902;13.606;2023-04-03T05:50:41;102744.50;;;-3.94;62.14
49709;BME280;35601;55.902;13.606;2023-04-03T05:53:07;102743.88;;;-3.92;61.10
49709;BME280;35601;55.902;13.606;2023-04-03T05:55:32;102740.32;;;-3.74;60.26
49709;BME280;35601;55.902;13.606;2023-04-03T05:57:57;102740.51;;;-3.50;59.99
49709;BME280;35601;55.902;13.606;2023-04-03T06:00:22;102736.98;;;-3.38;59.44
49709;BME280;35601;55.902;13.606;2023-04-03T06:02:49;102734.72;;;-3.30;58.46
49709;BME280;35601;55.902;13.606;2023-04-03T06:05:13;102735.58;;;-3.33;58.90
49709;BME280;35601;55.902;13.606;2023-04-03T06:07:39;102732.16;;;-3.23;59.72
49709;BME280;35601;55.902;13.606;2023-04-03T06:10:05;102734.30;;;-2.93;58.71
49709;BME280;35601;55.902;13.606;2023-04-03T06:12:29;102733.66;;;-2.87;58.39
49709;BME280;35601;55.902;13.606;2023-04-03T06:14:55;102734.32;;;-2.70;56.83
49709;BME280;35601;55.902;13.606;2023-04-03T06:17:20;102735.84;;;-2.56;56.82
49709;BME280;35601;55.902;13.606;2023-04-03T06:19:46;102737.08;;;-2.44;55.43
49709;BME280;35601;55.902;13.606;2023-04-03T06:22:11;102733.10;;;-2.38;55.43
49709;BME280;35601;55.902;13.606;2023-04-03T06:24:36;102736.24;;;-2.60;56.09
49709;BME280;35601;55.902;13.606;2023-04-03T06:27:03;102736.60;;;-2.41;56.10
49709;BME280;35601;55.902;13.606;2023-04-03T06:29:27;102731.67;;;-2.35;55.92
49709;BME280;35601;55.902;13.606;2023-04-03T06:31:52;102734.28;;;-2.43;55.76
49709;BME280;35601;55.902;13.606;2023-04-03T06:34:18;102737.15;;;-2.24;55.88
49709;BME280;35601;55.902;13.606;2023-04-03T06:36:44;102737.77;;;-2.63;56.24
49709;BME280;35601;55.902;13.606;2023-04-03T06:39:09;102741.38;;;-2.07;55.14
49709;BME280;35601;55.902;13.606;2023-04-03T06:41:34;102741.53;;;-2.22;55.04
49709;BME280;35601;55.902;13.606;2023-04-03T06:43:59;102741.01;;;-2.38;55.70
49709;BME280;35601;55.902;13.606;2023-04-03T06:46:26;102747.09;;;-2.14;55.22
49709;BME280;35601;55.902;13.606;2023-04-03T06:48:50;102747.47;;;-2.09;54.91
49709;BME280;35601;55.902;13.606;2023-04-03T06:51:18;102739.52;;;-2.03;54.40
49709;BME280;35601;55.902;13.606;2023-04-03T06:53:41;102742.99;;;-1.99;55.07
49709;BME280;35601;55.902;13.606;2023-04-03T06:56:07;102742.30;;;-2.07;54.96
49709;BME280;35601;55.902;13.606;2023-04-03T06:58:32;102744.55;;;-1.96;54.88
49709;BME280;35601;55.902;13.606;2023-04-03T07:00:57;102738.62;;;-1.42;54.00
49709;BME280;35601;55.902;13.606;2023-04-03T07:03:22;102744.44;;;-1.75;53.82
49709;BME280;35601;55.902;13.606;2023-04-03T07:05:48;102742.45;;;-1.32;53.14
49709;BME280;35601;55.902;13.606;2023-04-03T07:08:13;102748.25;;;-1.41;52.71
49709;BME280;35601;55.902;13.606;2023-04-03T07:10:38;102745.68;;;-1.21;51.98
49709;BME280;35601;55.902;13.606;2023-04-03T07:13:04;102745.49;;;-1.42;51.86
49709;BME280;35601;55.902;13.606;2023-04-03T07:15:29;102743.53;;;-1.20;50.94
49709;BME280;35601;55.902;13.606;2023-04-03T07:17:54;102742.16;;;-1.21;50.97
49709;BME280;35601;55.902;13.606;2023-04-03T07:20:20;102739.11;;;-0.67;50.01
49709;BME280;35601;55.902;13.606;2023-04-03T07:22:45;102744.10;;;-1.20;49.91
49709;BME280;35601;55.902;13.606;2023-04-03T07:25:11;102743.50;;;-1.50;50.69
49709;BME280;35601;55.902;13.606;2023-04-03T07:27:36;102739.63;;;-1.08;50.20
49709;BME280;35601;55.902;13.606;2023-04-03T07:30:02;102740.12;;;-0.95;49.23
49709;BME280;35601;55.902;13.606;2023-04-03T07:32:27;102742.59;;;-0.50;49.49
49709;BME280;35601;55.902;13.606;2023-04-03T07:34:52;102744.25;;;-1.08;49.04
49709;BME280;35601;55.902;13.606;2023-04-03T07:37:17;102746.37;;;-0.96;49.05
49709;BME280;35601;55.902;13.606;2023-04-03T07:39:43;102744.81;;;-0.77;48.02
49709;BME280;35601;55.902;13.606;2023-04-03T07:42:08;102742.43;;;-0.69;47.69
49709;BME280;35601;55.902;13.606;2023-04-03T07:44:34;102738.57;;;-0.22;46.65
49709;BME280;35601;55.902;13.606;2023-04-03T07:46:59;102738.15;;;-0.26;45.55
49709;BME280;35601;55.902;13.606;2023-04-03T07:49:25;102741.68;;;-0.29;46.01
49709;BME280;35601;55.902;13.606;2023-04-03T07:51:50;102744.37;;;-0.12;45.14
49709;BME280;35601;55.902;13.606;2023-04-03T07:54:16;102745.61;;;-0.86;45.31
49709;BME280;35601;55.902;13.606;2023-04-03T07:56:41;102747.82;;;-0.35;44.79
49709;BME280;35601;55.902;13.606;2023-04-03T07:59:06;102740.12;;;0.24;43.44
49709;BME280;35601;55.902;13.606;2023-04-03T08:01:31;102743.16;;;0.33;43.54
49709;BME280;35601;55.902;13.606;2023-04-03T08:03:57;102742.07;;;0.63;41.48
49709;BME280;35601;55.902;13.606;2023-04-03T08:06:22;102741.12;;;0.45;40.99
49709;BME280;35601;55.902;13.606;2023-04-03T08:08:47;102743.18;;;0.09;41.82
49709;BME280;35601;55.902;13.606;2023-04-03T08:11:13;102742.67;;;0.33;40.99
49709;BME280;35601;55.902;13.606;2023-04-03T08:13:38;102742.01;;;0.45;39.59
49709;BME280;35601;55.902;13.606;2023-04-03T08:16:10;102742.12;;;0.46;39.82
49709;BME280;35601;55.902;13.606;2023-04-03T08:18:29;102742.58;;;0.10;39.92
49709;BME280;35601;55.902;13.606;2023-04-03T08:20:54;102738.74;;;-0.00;40.86
49709;BME280;35601;55.902;13.606;2023-04-03T08:23:20;102740.90;;;0.03;39.09
49709;BME280;35601;55.902;13.606;2023-04-03T08:25:45;102741.67;;;0.09;39.03
49709;BME280;35601;55.902;13.606;2023-04-03T08:28:11;102740.89;;;-0.02;41.02
49709;BME280;35601;55.902;13.606;2023-04-03T08:30:38;102739.94;;;-0.05;40.81
49709;BME280;35601;55.902;13.606;2023-04-03T08:33:01;102741.49;;;0.30;40.28
49709;BME280;35601;55.902;13.606;2023-04-03T08:35:26;102739.53;;;0.53;39.37
49709;BME280;35601;55.902;13.606;2023-04-03T08:37:52;102740.15;;;0.65;39.23
49709;BME280;35601;55.902;13.606;2023-04-03T08:40:17;102735.62;;;0.92;38.20
49709;BME280;35601;55.902;13.606;2023-04-03T08:42:54;102729.72;;;1.25;38.03
49709;BME280;35601;55.902;13.606;2023-04-03T08:45:11;102729.30;;;1.62;36.02
49709;BME280;35601;55.902;13.606;2023-04-03T08:47:38;102726.52;;;1.54;34.66
49709;BME280;35601;55.902;13.606;2023-04-03T08:50:02;102728.78;;;1.95;35.94
49709;BME280;35601;55.902;13.606;2023-04-03T08:52:32;102729.92;;;1.72;35.13
49709;BME280;35601;55.902;13.606;2023-04-03T08:54:51;102732.47;;;2.06;33.88
49709;BME280;35601;55.902;13.606;2023-04-03T08:57:14;102724.85;;;1.93;33.99
49709;BME280;35601;55.902;13.606;2023-04-03T08:59:40;102727.40;;;2.20;33.54
49709;BME280;35601;55.902;13.606;2023-04-03T09:04:31;102728.82;;;1.46;33.69
49709;BME280;35601;55.902;13.606;2023-04-03T09:07:02;102729.81;;;1.48;33.62
49709;BME280;35601;55.902;13.606;2023-04-03T09:09:32;102731.08;;;1.58;34.13
49709;BME280;35601;55.902;13.606;2023-04-03T09:11:53;102728.19;;;1.56;33.81
49709;BME280;35601;55.902;13.606;2023-04-03T09:14:18;102724.35;;;1.73;33.70
49709;BME280;35601;55.902;13.606;2023-04-03T09:16:49;102724.46;;;1.70;33.80
49709;BME280;35601;55.902;13.606;2023-04-03T09:19:11;102733.40;;;1.85;32.71
49709;BME280;35601;55.902;13.606;2023-04-03T09:21:32;102727.20;;;2.18;33.29
49709;BME280;35601;55.902;13.606;2023-04-03T09:23:55;102726.14;;;1.86;33.02
49709;BME280;35601;55.902;13.606;2023-04-03T09:26:24;102725.78;;;1.66;33.32
49709;BME280;35601;55.902;13.606;2023-04-03T09:28:44;102724.96;;;2.18;33.32
49709;BME280;35601;55.902;13.606;2023-04-03T09:31:19;102725.24;;;2.16;33.05
49709;BME280;35601;55.902;13.606;2023-04-03T09:33:36;102723.88;;;2.05;30.30
49709;BME280;35601;55.902;13.606;2023-04-03T09:36:00;102720.33;;;2.17;28.90
49709;BME280;35601;55.902;13.606;2023-04-03T09:38:26;102721.64;;;2.35;28.94
49709;BME280;35601;55.902;13.606;2023-04-03T09:43:22;102721.52;;;2.07;30.43
49709;BME280;35601;55.902;13.606;2023-04-03T09:45:44;102716.04;;;2.36;30.13
49709;BME280;35601;55.902;13.606;2023-04-03T09:48:12;102718.47;;;3.01;30.64
49709;BME280;35601;55.902;13.606;2023-04-03T09:50:32;102712.27;;;3.34;31.08
49709;BME280;35601;55.902;13.606;2023-04-03T09:52:57;102710.91;;;3.12;29.78
49709;BME280;35601;55.902;13.606;2023-04-03T09:55:24;102706.65;;;3.21;29.45
49709;BME280;35601;55.902;13.606;2023-04-03T09:57:49;102702.60;;;3.24;30.56
49709;BME280;35601;55.902;13.606;2023-04-03T10:00:23;102696.19;;;3.65;30.68
49709;BME280;35601;55.902;13.606;2023-04-03T10:02:40;102691.49;;;3.68;27.63
49709;BME280;35601;55.902;13.606;2023-04-03T10:05:05;102693.21;;;3.87;28.07
49709;BME280;35601;55.902;13.606;2023-04-03T10:07:32;102696.08;;;4.16;27.06
49709;BME280;35601;55.902;13.606;2023-04-03T10:09:56;102691.24;;;4.50;26.88
49709;BME280;35601;55.902;13.606;2023-04-03T10:12:20;102687.99;;;4.90;26.81
49709;BME280;35601;55.902;13.606;2023-04-03T10:14:54;102687.24;;;5.15;25.32
49709;BME280;35601;55.902;13.606;2023-04-03T10:17:19;102689.52;;;4.62;25.97
49709;BME280;35601;55.902;13.606;2023-04-03T10:19:40;102683.83;;;4.97;24.67
49709;BME280;35601;55.902;13.606;2023-04-03T10:22:08;102681.22;;;4.92;25.54
49709;BME280;35601;55.902;13.606;2023-04-03T10:24:31;102671.21;;;4.80;26.47
49709;BME280;35601;55.902;13.606;2023-04-03T10:26:56;102672.26;;;5.30;24.86
49709;BME280;35601;55.902;13.606;2023-04-03T10:29:26;102671.38;;;5.54;25.76
49709;BME280;35601;55.902;13.606;2023-04-03T10:31:46;102670.24;;;5.77;26.34
49709;BME280;35601;55.902;13.606;2023-04-03T10:34:14;102673.22;;;5.98;25.75
49709;BME280;35601;55.902;13.606;2023-04-03T10:36:38;102668.72;;;6.08;24.44
49709;BME280;35601;55.902;13.606;2023-04-03T10:39:02;102667.19;;;6.58;25.10
49709;BME280;35601;55.902;13.606;2023-04-03T10:41:31;102658.13;;;6.04;25.03
49709;BME280;35601;55.902;13.606;2023-04-03T10:43:55;102660.48;;;5.59;25.57
49709;BME280;35601;55.902;13.606;2023-04-03T10:46:18;102660.96;;;4.77;25.61
49709;BME280;35601;55.902;13.606;2023-04-03T10:48:49;102657.91;;;5.22;26.06
49709;BME280;35601;55.902;13.606;2023-04-03T10:51:15;102653.95;;;5.70;27.83
49709;BME280;35601;55.902;13.606;2023-04-03T10:53:34;102654.75;;;6.02;25.88
49709;BME280;35601;55.902;13.606;2023-04-03T10:56:01;102652.45;;;6.01;25.31
49709;BME280;35601;55.902;13.606;2023-04-03T10:58:25;102654.69;;;6.00;24.41
49709;BME280;35601;55.902;13.606;2023-04-03T11:00:48;102645.68;;;6.02;24.98
49709;BME280;35601;55.902;13.606;2023-04-03T11:03:14;102646.34;;;6.00;24.63
49709;BME280;35601;55.902;13.606;2023-04-03T11:05:37;102637.98;;;6.68;24.24
49709;BME280;35601;55.902;13.606;2023-04-03T11:08:05;102632.05;;;7.29;22.83
49709;BME280;35601;55.902;13.606;2023-04-03T11:10:31;102628.67;;;7.04;23.94
49709;BME280;35601;55.902;13.606;2023-04-03T11:12:54;102626.53;;;6.86;23.40
49709;BME280;35601;55.902;13.606;2023-04-03T11:15:19;102628.65;;;6.85;23.43
49709;BME280;35601;55.902;13.606;2023-04-03T11:17:43;102626.65;;;6.89;23.79
49709;BME280;35601;55.902;13.606;2023-04-03T11:20:14;102627.35;;;6.90;23.98
49709;BME280;35601;55.902;13.606;2023-04-03T11:22:34;102621.20;;;6.83;23.07
49709;BME280;35601;55.902;13.606;2023-04-03T11:25:02;102616.17;;;6.92;24.61
49709;BME280;35601;55.902;13.606;2023-04-03T11:27:23;102619.96;;;7.14;24.37
49709;BME280;35601;55.902;13.606;2023-04-03T11:29:47;102617.09;;;6.68;23.42
49709;BME280;35601;55.902;13.606;2023-04-03T11:32:29;102616.21;;;6.62;23.37
49709;BME280;35601;55.902;13.606;2023-04-03T11:34:40;102615.79;;;6.07;23.36
49709;BME280;35601;55.902;13.606;2023-04-03T11:37:12;102609.40;;;6.56;23.74
49709;BME280;35601;55.902;13.606;2023-04-03T11:39:31;102608.88;;;6.58;23.72
49709;BME280;35601;55.902;13.606;2023-04-03T11:41:54;102604.82;;;6.33;23.94
49709;BME280;35601;55.902;13.606;2023-04-03T11:44:29;102611.41;;;5.67;23.75
49709;BME280;35601;55.902;13.606;2023-04-03T11:46:52;102613.10;;;5.74;24.35
49709;BME280;35601;55.902;13.606;2023-04-03T11:51:40;102611.42;;;6.10;23.83
49709;BME280;35601;55.902;13.606;2023-04-03T11:56:30;102599.01;;;6.29;22.06
49709;BME280;35601;55.902;13.606;2023-04-03T12:08:45;102597.15;;;6.12;21.95
49709;BME280;35601;55.902;13.606;2023-04-03T12:13:22;102585.14;;;7.04;22.50
49709;BME280;35601;55.902;13.606;2023-04-03T12:15:50;102581.77;;;6.85;21.89
49709;BME280;35601;55.902;13.606;2023-04-03T12:20:53;102579.08;;;7.32;22.02
49709;BME280;35601;55.902;13.606;2023-04-03T12:23:08;102576.52;;;6.98;22.74
49709;BME280;35601;55.902;13.606;2023-04-03T12:25:46;102577.02;;;7.09;21.92
49709;BME280;35601;55.902;13.606;2023-04-03T12:27:53;102571.76;;;7.44;21.64
49709;BME280;35601;55.902;13.606;2023-04-03T12:30:22;102567.52;;;7.52;21.55
49709;BME280;35601;55.902;13.606;2023-04-03T12:35:21;102558.41;;;6.35;22.81
49709;BME280;35601;55.902;13.606;2023-04-03T12:37:48;102558.82;;;6.54;22.51
49709;BME280;35601;55.902;13.606;2023-04-03T12:40:07;102561.60;;;6.57;22.86
49709;BME280;35601;55.902;13.606;2023-04-03T12:42:39;102565.35;;;6.20;22.65
49709;BME280;35601;55.902;13.606;2023-04-03T12:44:56;102561.02;;;6.24;22.45
49709;BME280;35601;55.902;13.606;2023-04-03T12:47:25;102552.07;;;6.23;24.00
49709;BME280;35601;55.902;13.606;2023-04-03T12:49:42;102557.52;;;6.13;21.94
49709;BME280;35601;55.902;13.606;2023-04-03T12:54:35;102557.43;;;4.68;23.52
49709;BME280;35601;55.902;13.606;2023-04-03T12:59:23;102558.72;;;5.53;22.35
49709;BME280;35601;55.902;13.606;2023-04-03T13:01:53;102548.77;;;5.88;22.79
49709;BME280;35601;55.902;13.606;2023-04-03T13:04:12;102546.60;;;5.89;23.05